createdAt,value
2018-01-15T00:01:32.654Z,24.33
2018-01-15T00:04:00.764Z,14.20
2018-01-15T00:06:28.225Z,14.73
2018-01-15T00:08:55.689Z,17.40
2018-01-15T00:11:23.480Z,12.47
2018-01-15T00:13:50.905Z,13.33
2018-01-15T00:16:18.368Z,12.37
2018-01-15T00:18:46.429Z,12.50
2018-01-15T00:21:13.897Z,17.53
2018-01-15T00:23:41.354Z,14.30
2018-01-15T00:26:09.114Z,13.60
2018-01-15T00:28:36.572Z,13.73
2018-01-15T00:31:04.031Z,16.50
2018-01-15T00:33:31.753Z,14.43
2018-01-15T00:35:59.558Z,15.00
2018-01-15T00:38:27.012Z,15.47
2018-01-15T00:40:54.786Z,14.80
2018-01-15T00:43:22.243Z,17.17
2018-01-15T00:45:49.755Z,13.40
2018-01-15T00:48:17.780Z,16.07
2018-01-15T00:50:45.238Z,15.50
2018-01-15T00:53:12.694Z,19.77
2018-01-15T00:55:40.298Z,24.13
2018-01-15T00:58:07.760Z,15.40
2018-01-15T01:00:35.238Z,15.47
2018-01-15T01:03:03.156Z,16.30
2018-01-15T01:05:30.612Z,19.77
2018-01-15T01:07:58.069Z,13.50
2018-01-15T01:10:25.858Z,15.43
2018-01-15T01:12:53.614Z,23.37
2018-01-15T01:15:21.077Z,14.30
2018-01-15T01:17:48.537Z,14.17
2018-01-15T01:20:16.299Z,18.67
2018-01-15T01:22:43.760Z,17.77
2018-01-15T01:25:11.220Z,17.47
2018-01-15T01:27:39.298Z,16.67
2018-01-15T01:30:06.757Z,12.97
2018-01-15T01:32:34.220Z,16.67
2018-01-15T01:35:02.289Z,12.73
2018-01-15T01:37:30.436Z,16.20
2018-01-15T01:39:57.885Z,14.67
2018-01-15T01:42:25.902Z,13.17
2018-01-15T01:44:53.357Z,14.17
2018-01-15T01:47:20.818Z,17.00
2018-01-15T01:49:48.888Z,15.20
2018-01-15T01:52:16.357Z,13.87
2018-01-15T01:54:43.826Z,13.10
2018-01-15T01:57:11.571Z,12.90
2018-01-15T01:59:39.021Z,15.90
2018-01-15T02:02:06.477Z,16.70
2018-01-15T02:04:34.252Z,22.40
2018-01-15T02:07:01.703Z,16.73
2018-01-15T02:09:29.162Z,15.13
2018-01-15T02:11:56.942Z,11.87
2018-01-15T02:14:24.395Z,14.40
2018-01-15T02:16:51.848Z,13.40
2018-01-15T02:19:19.940Z,20.97
2018-01-15T02:21:47.392Z,21.67
2018-01-15T02:24:14.856Z,17.33
2018-01-15T02:26:42.636Z,14.03
2018-01-15T02:29:10.106Z,14.53
2018-01-15T02:31:37.561Z,15.33
2018-01-15T02:34:05.926Z,16.30
2018-01-15T02:36:33.372Z,17.30
2018-01-15T02:39:01.243Z,14.00
2018-01-15T02:41:28.933Z,17.43
2018-01-15T02:43:56.391Z,19.97
2018-01-15T02:46:23.849Z,14.20
2018-01-15T02:48:51.926Z,20.97
2018-01-15T02:51:19.380Z,35.73
2018-01-15T02:53:46.839Z,15.27
2018-01-15T02:56:14.611Z,24.93
2018-01-15T02:58:42.061Z,19.83
2018-01-15T03:01:09.512Z,24.67
2018-01-15T03:03:37.293Z,17.70
2018-01-15T03:06:04.747Z,18.80
2018-01-15T03:08:32.202Z,19.47
2018-01-15T03:10:59.981Z,27.83
2018-01-15T03:13:27.440Z,21.27
2018-01-15T03:15:54.900Z,15.20
2018-01-15T03:18:22.593Z,21.37
2018-01-15T03:20:50.056Z,17.53
2018-01-15T03:23:17.513Z,16.77
2018-01-15T03:25:45.356Z,16.10
2018-01-15T03:28:12.825Z,14.23
2018-01-15T03:30:40.294Z,15.40
2018-01-15T03:33:08.049Z,22.20
2018-01-15T03:35:35.505Z,19.63
2018-01-15T03:38:02.960Z,14.07
2018-01-15T03:40:34.643Z,14.63
2018-01-15T03:43:02.105Z,14.63
2018-01-15T03:45:29.556Z,23.60
2018-01-15T03:47:57.656Z,19.20
2018-01-15T03:50:25.119Z,14.00
2018-01-15T03:52:52.588Z,19.40
2018-01-15T03:55:20.247Z,15.40
2018-01-15T03:57:47.701Z,16.07
2018-01-15T04:00:15.161Z,18.10
2018-01-15T04:02:43.089Z,23.80
2018-01-15T04:05:10.543Z,16.13
2018-01-15T04:07:37.998Z,18.07
2018-01-15T04:10:05.776Z,23.47
2018-01-15T04:12:33.287Z,22.07
2018-01-15T04:15:00.745Z,19.57
2018-01-15T04:17:28.768Z,24.87
2018-01-15T04:19:56.240Z,24.67
2018-01-15T04:22:23.700Z,22.90
2018-01-15T04:24:51.309Z,29.17
2018-01-15T04:27:18.769Z,30.07
2018-01-15T04:29:46.224Z,20.87
2018-01-15T04:32:13.847Z,23.60
2018-01-15T04:34:41.311Z,19.20
2018-01-15T04:37:08.775Z,23.87
2018-01-15T04:39:36.530Z,21.57
2018-01-15T04:42:04.679Z,26.67
2018-01-15T04:44:32.149Z,23.43
2018-01-15T04:46:59.899Z,22.10
2018-01-15T04:49:27.357Z,25.10
2018-01-15T04:51:54.812Z,25.80
2018-01-15T04:54:22.521Z,19.00
2018-01-15T04:56:49.980Z,18.30
2018-01-15T04:59:17.443Z,19.00
2018-01-15T05:01:45.517Z,22.60
2018-01-15T05:04:12.976Z,17.13
2018-01-15T05:06:40.438Z,19.07
2018-01-15T05:09:08.191Z,24.07
2018-01-15T05:11:35.662Z,20.10
2018-01-15T05:14:03.120Z,19.83
2018-01-15T05:16:30.900Z,21.93
2018-01-15T05:18:58.357Z,19.30
2018-01-15T05:21:25.824Z,17.03
2018-01-15T05:23:53.874Z,18.77
2018-01-15T05:26:21.344Z,34.77
2018-01-15T05:28:48.808Z,19.63
2018-01-15T05:31:16.573Z,19.63
2018-01-15T05:33:44.040Z,27.07
2018-01-15T05:36:11.501Z,24.43
2018-01-15T05:38:39.259Z,23.20
2018-01-15T05:41:06.719Z,33.50
2018-01-15T05:43:34.410Z,28.77
2018-01-15T05:46:02.136Z,28.33
2018-01-15T05:48:29.606Z,25.50
2018-01-15T05:50:57.071Z,20.83
2018-01-15T05:53:24.929Z,21.30
2018-01-15T05:55:52.404Z,28.33
2018-01-15T05:58:19.864Z,28.03
2018-01-15T06:00:47.633Z,26.33
2018-01-15T06:03:15.101Z,23.90
2018-01-15T06:05:42.573Z,26.47
2018-01-15T06:08:10.617Z,29.60
2018-01-15T06:10:38.077Z,24.10
2018-01-15T06:13:05.550Z,24.00
2018-01-15T06:15:33.610Z,31.47
2018-01-15T06:18:01.077Z,27.57
2018-01-15T06:20:28.536Z,26.20
2018-01-15T06:22:56.424Z,22.63
2018-01-15T06:25:23.885Z,23.30
2018-01-15T06:27:51.348Z,25.50
2018-01-15T06:30:19.284Z,31.43
2018-01-15T06:32:46.744Z,31.10
2018-01-15T06:35:15.393Z,23.50
2018-01-15T06:37:43.216Z,26.77
2018-01-15T06:40:10.672Z,30.43
2018-01-15T06:42:38.137Z,30.87
2018-01-15T06:45:06.558Z,28.53
2018-01-15T06:47:34.033Z,39.13
2018-01-15T06:50:01.492Z,40.97
2018-01-15T06:52:29.189Z,31.23
2018-01-15T06:54:56.645Z,50.17
2018-01-15T06:57:24.105Z,38.80
2018-01-15T06:59:51.882Z,28.40
2018-01-15T07:02:19.356Z,29.60
2018-01-15T07:04:46.811Z,32.30
2018-01-15T07:07:14.889Z,31.90
2018-01-15T07:09:42.346Z,29.23
2018-01-15T07:12:09.805Z,24.70
2018-01-15T07:14:37.561Z,33.60
2018-01-15T07:17:05.016Z,29.03
2018-01-15T07:19:32.473Z,25.47
2018-01-15T07:22:00.253Z,21.30
2018-01-15T07:24:27.725Z,31.13
2018-01-15T07:26:55.185Z,24.97
2018-01-15T07:29:22.931Z,26.60
2018-01-15T07:31:50.401Z,31.73
2018-01-15T07:34:17.863Z,33.37
2018-01-15T07:36:45.618Z,22.90
2018-01-15T07:39:13.081Z,25.43
2018-01-15T07:41:40.540Z,30.50
2018-01-15T07:44:08.317Z,28.70
2018-01-15T07:46:36.149Z,26.87
2018-01-15T07:49:03.614Z,27.63
2018-01-15T07:51:31.921Z,27.37
2018-01-15T07:53:59.383Z,36.67
2018-01-15T07:56:26.845Z,26.10
2018-01-15T07:58:54.655Z,33.87
2018-01-15T08:01:22.212Z,24.67
2018-01-15T08:03:49.675Z,25.47
2018-01-15T08:06:17.350Z,28.10
2018-01-15T08:08:44.814Z,25.20
2018-01-15T08:11:12.277Z,25.17
2018-01-15T08:13:39.873Z,23.30
2018-01-15T08:16:07.377Z,24.10
2018-01-15T08:18:34.815Z,23.43
2018-01-15T08:21:02.673Z,24.87
2018-01-15T08:23:30.144Z,26.50
2018-01-15T08:25:57.592Z,29.37
2018-01-15T08:28:25.257Z,38.13
2018-01-15T08:30:52.712Z,21.33
2018-01-15T08:33:20.206Z,23.80
2018-01-15T08:35:48.040Z,26.70
2018-01-15T08:38:15.502Z,20.57
2018-01-15T08:40:42.949Z,18.90
2018-01-15T08:43:10.672Z,25.40
2018-01-15T08:45:38.124Z,19.53
2018-01-15T08:48:06.332Z,31.83
2018-01-15T08:50:34.278Z,25.93
2018-01-15T08:53:01.735Z,34.37
2018-01-15T08:55:29.199Z,17.40
2018-01-15T08:57:56.964Z,22.83
2018-01-15T09:00:24.413Z,18.40
2018-01-15T09:02:51.871Z,28.07
2018-01-15T09:05:19.705Z,24.53
2018-01-15T09:07:47.159Z,26.20
2018-01-15T09:10:14.605Z,20.33
2018-01-15T09:12:42.388Z,18.23
2018-01-15T09:15:09.835Z,24.17
2018-01-15T09:17:37.289Z,23.80
2018-01-15T09:20:05.077Z,22.07
2018-01-15T09:22:32.524Z,28.70
2018-01-15T09:24:59.976Z,25.30
2018-01-15T09:27:27.763Z,19.33
2018-01-15T09:29:55.212Z,26.50
2018-01-15T09:32:22.670Z,19.27
2018-01-15T09:34:50.444Z,17.53
2018-01-15T09:37:17.897Z,20.00
2018-01-15T09:39:45.350Z,27.23
2018-01-15T09:42:13.137Z,23.20
2018-01-15T09:44:40.939Z,18.53
2018-01-15T09:47:08.392Z,22.23
2018-01-15T09:49:37.677Z,18.37
2018-01-15T09:52:05.138Z,16.63
2018-01-15T09:54:32.585Z,17.33
2018-01-15T09:57:00.657Z,20.50
2018-01-15T09:59:28.109Z,19.73
2018-01-15T10:01:55.556Z,15.10
2018-01-15T10:04:23.357Z,14.30
2018-01-15T10:06:50.817Z,15.43
2018-01-15T10:09:18.269Z,30.27
2018-01-15T10:11:46.660Z,22.10
2018-01-15T10:14:14.109Z,20.53
2018-01-15T10:16:41.557Z,17.10
2018-01-15T10:19:09.336Z,18.03
2018-01-15T10:21:36.802Z,17.83
2018-01-15T10:24:04.257Z,22.30
2018-01-15T10:26:32.044Z,23.73
2018-01-15T10:28:59.495Z,24.30
2018-01-15T10:31:26.953Z,18.30
2018-01-15T10:33:54.697Z,17.57
2018-01-15T10:36:22.149Z,16.23
2018-01-15T10:38:49.617Z,15.93
2018-01-15T10:41:17.394Z,24.17
2018-01-15T10:43:44.864Z,26.80
2018-01-15T10:46:12.404Z,15.57
2018-01-15T10:48:40.394Z,16.33
2018-01-15T10:51:08.540Z,20.10
2018-01-15T10:53:35.988Z,17.37
2018-01-15T10:56:04.017Z,18.07
2018-01-15T10:58:31.472Z,20.07
2018-01-15T11:00:58.927Z,17.10
2018-01-15T11:03:26.698Z,16.07
2018-01-15T11:05:54.148Z,18.40
2018-01-15T11:08:21.613Z,16.93
2018-01-15T11:10:49.720Z,18.43
2018-01-15T11:13:17.169Z,17.00
2018-01-15T11:15:44.629Z,21.73
2018-01-15T11:18:12.369Z,18.73
2018-01-15T11:20:39.817Z,16.30
2018-01-15T11:23:07.280Z,24.23
2018-01-15T11:25:35.097Z,20.30
2018-01-15T11:28:02.521Z,20.77
2018-01-15T11:30:29.996Z,19.50
2018-01-15T11:32:57.755Z,19.70
2018-01-15T11:35:25.204Z,19.93
2018-01-15T11:37:52.648Z,15.67
2018-01-15T11:40:20.430Z,27.07
2018-01-15T11:42:47.885Z,18.73
2018-01-15T11:45:15.328Z,21.23
2018-01-15T11:47:43.123Z,30.93
2018-01-15T11:50:10.576Z,16.47
2018-01-15T11:52:38.410Z,17.83
2018-01-15T11:55:06.428Z,16.13
2018-01-15T11:57:33.881Z,17.87
2018-01-15T12:00:01.336Z,26.17
2018-01-15T12:02:29.109Z,16.27
2018-01-15T12:04:56.574Z,18.53
2018-01-15T12:07:24.033Z,18.07
2018-01-15T12:09:51.797Z,24.93
2018-01-15T12:12:19.248Z,22.07
2018-01-15T12:14:46.692Z,21.80
2018-01-15T12:17:14.482Z,19.10
2018-01-15T12:19:41.941Z,19.07
2018-01-15T12:22:09.405Z,20.30
2018-01-15T12:24:37.781Z,18.10
2018-01-15T12:27:05.229Z,35.63
2018-01-15T12:29:32.673Z,17.80
2018-01-15T12:32:00.462Z,16.03
2018-01-15T12:34:27.930Z,20.53
2018-01-15T12:36:56.717Z,23.83
2018-01-15T12:39:24.692Z,20.77
2018-01-15T12:41:52.135Z,18.63
2018-01-15T12:44:19.588Z,15.90
2018-01-15T12:46:47.369Z,18.77
2018-01-15T12:49:14.822Z,18.43
2018-01-15T12:51:42.280Z,25.40
2018-01-15T12:54:10.673Z,21.37
2018-01-15T12:56:38.120Z,21.33
2018-01-15T12:59:05.563Z,19.90
2018-01-15T13:01:33.368Z,20.60
2018-01-15T13:04:00.824Z,19.97
2018-01-15T13:06:40.586Z,20.07
2018-01-15T13:09:08.040Z,21.67
2018-01-15T13:11:35.513Z,33.03
2018-01-15T13:14:03.264Z,24.60
2018-01-15T13:16:30.728Z,17.60
2018-01-15T13:18:58.188Z,20.10
2018-01-15T13:21:25.949Z,16.93
2018-01-15T13:23:53.406Z,15.37
2018-01-15T13:26:20.853Z,18.67
2018-01-15T13:28:48.561Z,17.47
2018-01-15T13:31:16.024Z,15.87
2018-01-15T13:33:43.484Z,15.53
2018-01-15T13:36:11.320Z,16.47
2018-01-15T13:38:38.772Z,16.37
2018-01-15T13:41:06.220Z,16.27
2018-01-15T13:43:34.012Z,16.70
2018-01-15T13:46:01.481Z,16.83
2018-01-15T13:48:28.939Z,15.30
2018-01-15T13:50:56.701Z,21.07
2018-01-15T13:53:24.148Z,19.00
2018-01-15T13:55:51.689Z,20.23
2018-01-15T13:58:19.468Z,17.60
2018-01-15T14:00:46.921Z,17.40
2018-01-15T14:03:14.372Z,16.27
2018-01-15T14:05:42.088Z,18.10
2018-01-15T14:08:09.542Z,24.40
2018-01-15T14:10:37.001Z,20.17
2018-01-15T14:13:04.753Z,20.97
2018-01-15T14:15:32.209Z,20.70
2018-01-15T14:17:59.665Z,18.17
2018-01-15T14:20:27.655Z,19.47
2018-01-15T14:22:55.105Z,27.17
2018-01-15T14:25:22.556Z,24.30
2018-01-15T14:27:50.844Z,17.53
2018-01-15T14:30:18.293Z,18.83
2018-01-15T14:32:45.756Z,19.23
2018-01-15T14:35:13.777Z,23.13
2018-01-15T14:37:41.249Z,17.40
2018-01-15T14:40:08.709Z,19.13
2018-01-15T14:42:36.342Z,25.87
2018-01-15T14:45:03.804Z,20.43
2018-01-15T14:47:31.257Z,20.77
2018-01-15T14:49:59.421Z,16.90
2018-01-15T14:52:26.881Z,24.53
2018-01-15T14:54:54.344Z,17.23
2018-01-15T14:57:22.720Z,20.17
2018-01-15T14:59:50.168Z,20.33
2018-01-15T15:02:17.644Z,20.53
2018-01-15T15:04:45.413Z,20.17
2018-01-15T15:07:12.873Z,22.70
2018-01-15T15:09:40.340Z,22.47
2018-01-15T15:12:08.119Z,21.10
2018-01-15T15:14:35.585Z,21.37
2018-01-15T15:17:03.030Z,22.20
2018-01-15T15:19:30.788Z,21.83
2018-01-15T15:21:58.236Z,21.00
2018-01-15T15:24:25.701Z,17.70
2018-01-15T15:26:53.474Z,37.63
2018-01-15T15:29:20.932Z,24.93
2018-01-15T15:31:48.388Z,23.53
2018-01-15T15:34:16.160Z,24.43
2018-01-15T15:36:43.607Z,29.90
2018-01-15T15:39:11.056Z,21.40
2018-01-15T15:41:38.838Z,18.63
2018-01-15T15:44:06.292Z,25.10
2018-01-15T15:46:33.745Z,21.60
2018-01-15T15:49:01.531Z,21.63
2018-01-15T15:51:28.985Z,28.77
2018-01-15T15:53:56.435Z,18.43
2018-01-15T15:56:24.229Z,19.70
2018-01-15T15:58:52.066Z,17.97
2018-01-15T16:01:19.530Z,22.27
2018-01-15T16:03:47.517Z,18.93
2018-01-15T16:06:14.978Z,20.67
2018-01-15T16:08:42.434Z,21.63
2018-01-15T16:11:10.214Z,26.07
2018-01-15T16:13:37.661Z,23.23
2018-01-15T16:16:05.109Z,25.60
2018-01-15T16:18:32.893Z,24.73
2018-01-15T16:21:00.343Z,27.87
2018-01-15T16:23:27.797Z,25.23
2018-01-15T16:25:55.589Z,25.97
2018-01-15T16:28:23.056Z,23.57
2018-01-15T16:30:50.514Z,23.50
2018-01-15T16:33:18.265Z,30.73
2018-01-15T16:35:46.332Z,18.20
2018-01-15T16:38:13.789Z,24.13
2018-01-15T16:40:41.515Z,26.17
2018-01-15T16:43:09.909Z,31.63
2018-01-15T16:45:37.487Z,24.80
2018-01-15T16:48:05.498Z,26.80
2018-01-15T16:50:33.476Z,25.33
2018-01-15T16:53:01.085Z,31.77
2018-01-15T16:55:28.974Z,29.20
2018-01-15T16:57:56.432Z,30.53
2018-01-15T17:00:25.320Z,37.50
2018-01-15T17:02:54.007Z,32.47
2018-01-15T17:05:21.476Z,27.70
2018-01-15T17:07:48.937Z,43.60
2018-01-15T17:10:17.242Z,36.83
2018-01-15T17:12:44.758Z,38.87
2018-01-15T17:15:12.497Z,29.17
2018-01-15T17:17:41.564Z,28.47
2018-01-15T17:20:09.065Z,31.90
2018-01-15T17:22:36.520Z,39.10
2018-01-15T17:25:04.502Z,28.97
2018-01-15T17:27:31.961Z,35.23
2018-01-15T17:29:59.466Z,50.27
2018-01-15T17:32:27.138Z,34.03
2018-01-15T17:34:54.617Z,46.23
2018-01-15T17:37:22.081Z,40.80
2018-01-15T17:39:50.215Z,37.97
2018-01-15T17:42:17.960Z,34.23
2018-01-15T17:44:45.508Z,43.47
2018-01-15T17:47:14.307Z,45.77
2018-01-15T17:49:41.773Z,36.20
2018-01-15T17:52:09.253Z,52.80
2018-01-15T17:54:37.045Z,40.40
2018-01-15T17:57:04.778Z,40.93
2018-01-15T17:59:32.232Z,29.13
2018-01-15T18:02:00.966Z,41.70
2018-01-15T18:04:28.426Z,29.23
2018-01-15T18:06:55.896Z,44.23
2018-01-15T18:09:23.761Z,32.37
2018-01-15T18:11:51.222Z,29.53
2018-01-15T18:14:18.675Z,35.30
2018-01-15T18:16:46.642Z,26.73
2018-01-15T18:19:14.113Z,36.83
2018-01-15T18:21:41.577Z,29.50
2018-01-15T18:24:09.345Z,30.90
2018-01-15T18:26:36.812Z,33.67
2018-01-15T18:29:04.267Z,33.73
2018-01-15T18:31:32.030Z,34.53
2018-01-15T18:33:59.501Z,42.93
2018-01-15T18:36:26.975Z,28.93
2018-01-15T18:38:54.712Z,35.53
2018-01-15T18:41:22.164Z,50.90
2018-01-15T18:43:49.628Z,34.47
2018-01-15T18:46:17.216Z,25.20
2018-01-15T18:48:44.686Z,35.90
2018-01-15T18:51:12.159Z,36.90
2018-01-15T18:53:40.156Z,31.87
2018-01-15T18:56:07.621Z,36.17
2018-01-15T18:58:35.081Z,30.93
2018-01-15T19:01:02.780Z,34.40
2018-01-15T19:03:30.620Z,36.57
2018-01-15T19:05:58.076Z,26.23
2018-01-15T19:08:25.806Z,32.10
2018-01-15T19:10:53.263Z,35.47
2018-01-15T19:13:20.729Z,30.90
2018-01-15T19:15:48.450Z,38.40
2018-01-15T19:18:15.919Z,35.93
2018-01-15T19:20:43.383Z,34.80
2018-01-15T19:23:11.738Z,29.83
2018-01-15T19:25:39.208Z,29.63
2018-01-15T19:28:06.669Z,42.30
2018-01-15T19:30:34.556Z,28.50
2018-01-15T19:33:02.016Z,32.17
2018-01-15T19:35:35.452Z,28.03
2018-01-15T19:38:03.384Z,30.90
2018-01-15T19:40:30.870Z,26.00
2018-01-15T19:43:00.756Z,32.73
2018-01-15T19:45:34.278Z,30.53
2018-01-15T19:48:07.315Z,21.60
2018-01-15T19:50:40.846Z,32.57
2018-01-15T19:56:15.061Z,20.50
2018-01-15T19:58:48.984Z,25.83
2018-01-15T20:01:22.286Z,30.07
2018-01-15T20:03:55.857Z,25.83
2018-01-15T20:06:29.187Z,26.67
2018-01-15T20:09:02.161Z,24.00
2018-01-15T20:11:29.948Z,30.97
2018-01-15T20:13:57.412Z,28.10
2018-01-15T20:16:24.872Z,30.43
2018-01-15T20:18:52.638Z,17.37
2018-01-15T20:21:20.096Z,30.30
2018-01-15T20:23:47.565Z,29.20
2018-01-15T20:26:15.387Z,21.03
2018-01-15T20:28:42.856Z,20.63
2018-01-15T20:31:10.336Z,35.93
2018-01-15T20:33:38.064Z,22.50
2018-01-15T20:36:05.785Z,29.67
2018-01-15T20:38:33.291Z,50.93
2018-01-15T20:41:01.051Z,28.07
2018-01-15T20:43:28.534Z,37.37
2018-01-15T20:45:56.152Z,25.87
2018-01-15T20:48:24.027Z,30.70
2018-01-15T20:50:51.505Z,33.30
2018-01-15T20:53:18.987Z,34.23
2018-01-15T20:55:46.732Z,25.00
2018-01-15T20:58:14.208Z,34.00
2018-01-15T21:00:41.669Z,29.20
2018-01-15T21:03:09.681Z,27.80
2018-01-15T21:05:39.077Z,29.30
2018-01-15T21:08:06.537Z,27.73
2018-01-15T21:10:34.525Z,27.70
2018-01-15T21:13:01.994Z,35.50
2018-01-15T21:15:29.457Z,26.23
2018-01-15T21:17:57.227Z,21.17
2018-01-15T21:20:24.681Z,20.53
2018-01-15T21:22:52.157Z,33.83
2018-01-15T21:25:19.909Z,31.47
2018-01-15T21:27:48.851Z,27.90
2018-01-15T21:30:16.333Z,22.87
2018-01-15T21:32:44.115Z,39.17
2018-01-15T21:35:11.580Z,32.87
2018-01-15T21:37:39.060Z,28.57
2018-01-15T21:40:07.412Z,24.47
2018-01-15T21:42:34.919Z,25.20
2018-01-15T21:45:02.349Z,21.37
2018-01-15T21:47:30.126Z,32.60
2018-01-15T21:49:57.604Z,24.50
2018-01-15T21:52:25.085Z,22.53
2018-01-15T21:54:53.112Z,26.50
2018-01-15T21:57:20.584Z,21.17
2018-01-15T21:59:48.045Z,22.90
2018-01-15T22:02:15.784Z,21.53
2018-01-15T22:04:43.263Z,23.87
2018-01-15T22:07:11.084Z,26.93
2018-01-15T22:09:39.093Z,26.97
2018-01-15T22:12:06.560Z,20.80
2018-01-15T22:14:34.032Z,44.43
2018-01-15T22:17:01.786Z,33.60
2018-01-15T22:19:29.248Z,20.70
2018-01-15T22:21:56.721Z,27.53
2018-01-15T22:24:24.456Z,30.03
2018-01-15T22:29:37.202Z,26.17
2018-01-15T22:32:04.677Z,29.33
2018-01-15T22:34:32.141Z,29.13
2018-01-15T22:36:59.932Z,28.50
2018-01-15T22:39:27.408Z,24.17
2018-01-15T22:41:54.862Z,38.57
2018-01-15T22:44:22.571Z,34.13
2018-01-15T22:46:50.034Z,33.90
2018-01-15T22:49:17.498Z,27.30
2018-01-15T22:51:45.574Z,31.87
2018-01-15T22:54:13.081Z,23.37
2018-01-15T22:56:40.544Z,33.37
2018-01-15T22:59:08.265Z,30.40
2018-01-15T23:01:35.721Z,28.50
2018-01-15T23:04:03.191Z,23.40
2018-01-15T23:06:30.916Z,28.37
2018-01-15T23:08:59.103Z,26.50
2018-01-15T23:11:26.560Z,32.00
2018-01-15T23:13:54.289Z,27.23
2018-01-15T23:16:21.747Z,26.43
2018-01-15T23:18:49.209Z,32.90
2018-01-15T23:21:16.924Z,29.97
2018-01-15T23:23:44.380Z,28.93
2018-01-15T23:26:11.836Z,21.60
2018-01-15T23:28:40.251Z,30.03
2018-01-15T23:31:07.709Z,31.53
2018-01-15T23:33:35.160Z,27.33
2018-01-15T23:36:02.920Z,27.47
2018-01-15T23:38:30.372Z,30.97
2018-01-15T23:40:57.829Z,26.10
2018-01-15T23:43:25.544Z,29.63
2018-01-15T23:45:53.019Z,35.63
2018-01-15T23:48:20.477Z,25.67
2018-01-15T23:50:48.200Z,25.57
2018-01-15T23:53:15.649Z,21.83
2018-01-15T23:55:43.112Z,22.00
2018-01-15T23:58:10.973Z,28.33
